Time;durP1;ratioP1;P1;durP2;ratioP2;P2;SDS_P1;SDS_P2;PMS_P1;PMS_P2;Temp;Humidity;BMP_temperature;BMP_pressure;BME280_temperature;BME280_humidity;BME280_pressure;Samples;Min_cycle;Max_cycle;Signal;HPM_P1;HPM_P2
2022/01/08 17:02:54;;;;;;;71.68;40.30;;;;;;;;;;5090115;28;20386;-72
2022/01/08 17:05:20;;;;;;;89.53;50.83;;;;;;;;;;5089975;28;20029;-71
2022/01/08 17:07:47;;;;;;;88.88;51.05;;;;;;;;;;5090224;28;20027;-71
2022/01/08 17:10:13;;;;;;;76.65;43.35;;;;;;;;;;5090261;28;20082;-70
2022/01/08 17:12:40;;;;;;;98.82;53.30;;;;;;;;;;5071950;28;20409;-71
2022/01/08 17:15:07;;;;;;;87.35;52.33;;;;;;;;;;5071600;28;20097;-71
2022/01/08 17:17:33;;;;;;;81.05;43.22;;;;;;;;;;5089280;28;20103;-71
2022/01/08 17:20:00;;;;;;;60.33;36.03;;;;;;;;;;5071620;28;20028;-71
2022/01/08 17:22:26;;;;;;;69.47;35.28;;;;;;;;;;5089868;28;20051;-72
2022/01/08 17:24:52;;;;;;;67.47;37.15;;;;;;;;;;5071753;28;20028;-71
2022/01/08 17:27:18;;;;;;;71.03;37.92;;;;;;;;;;5070321;28;20469;-70
2022/01/08 17:29:44;;;;;;;70.05;40.20;;;;;;;;;;5089883;28;20100;-72
2022/01/08 17:32:11;;;;;;;74.78;40.88;;;;;;;;;;5071599;28;20548;-70
2022/01/08 17:34:37;;;;;;;76.47;40.80;;;;;;;;;;5087174;28;20099;-72
2022/01/08 17:37:03;;;;;;;65.75;36.13;;;;;;;;;;5070829;28;20027;-70
2022/01/08 17:39:29;;;;;;;70.93;39.42;;;;;;;;;;5071424;28;20024;-69
2022/01/08 17:41:55;;;;;;;77.97;41.88;;;;;;;;;;5089633;28;20051;-69
2022/01/08 17:44:22;;;;;;;75.15;37.85;;;;;;;;;;5089551;28;20112;-68
2022/01/08 17:46:48;;;;;;;73.60;39.83;;;;;;;;;;5071319;28;20030;-68
2022/01/08 17:49:14;;;;;;;76.03;40.67;;;;;;;;;;5089201;28;20099;-67
2022/01/08 17:51:40;;;;;;;92.35;43.47;;;;;;;;;;5071242;28;20082;-67
2022/01/08 17:54:07;;;;;;;85.53;41.35;;;;;;;;;;5071193;28;20081;-67
2022/01/08 17:56:33;;;;;;;74.47;38.42;;;;;;;;;;5089688;28;20058;-66
2022/01/08 17:59:02;;;;;;;72.63;38.75;;;;;;;;;;5089320;28;20107;-66
2022/01/08 18:01:28;;;;;;;80.75;41.83;;;;;;;;;;5070602;28;20048;-66
2022/01/08 18:03:55;;;;;;;75.03;38.67;;;;;;;;;;5075207;28;20401;-66
2022/01/08 18:06:21;;;;;;;81.32;40.03;;;;;;;;;;5075390;28;20028;-67
2022/01/08 18:08:47;;;;;;;78.13;39.10;;;;;;;;;;5057719;28;20039;-68
2022/01/08 18:11:13;;;;;;;57.67;31.65;;;;;;;;;;5075700;28;20105;-66
2022/01/08 18:13:40;;;;;;;56.63;29.33;;;;;;;;;;5075636;28;20028;-66
2022/01/08 18:16:06;;;;;;;59.00;29.63;;;;;;;;;;5075258;28;20024;-66
2022/01/08 18:18:33;;;;;;;67.40;35.03;;;;;;;;;;5075500;28;20037;-68
2022/01/08 18:20:59;;;;;;;65.93;32.65;;;;;;;;;;5075372;28;20039;-67
2022/01/08 18:23:26;;;;;;;46.05;26.45;;;;;;;;;;5075429;28;20051;-67
2022/01/08 18:25:52;;;;;;;53.03;28.88;;;;;;;;;;5075377;28;20039;-68
2022/01/08 18:28:18;;;;;;;65.30;34.00;;;;;;;;;;5075050;28;20031;-67
2022/01/08 18:30:45;;;;;;;50.72;25.88;;;;;;;;;;5075285;28;20038;-68
2022/01/08 18:33:11;;;;;;;47.40;23.75;;;;;;;;;;5073541;28;20047;-70
2022/01/08 18:35:37;;;;;;;54.80;29.73;;;;;;;;;;5057086;28;20052;-65
2022/01/08 18:38:04;;;;;;;51.70;25.80;;;;;;;;;;5074965;28;20060;-67
2022/01/08 18:40:30;;;;;;;58.28;29.00;;;;;;;;;;5075056;28;20051;-67
2022/01/08 18:42:57;;;;;;;60.25;29.95;;;;;;;;;;5056920;28;20029;-67
2022/01/08 18:45:24;;;;;;;69.30;32.65;;;;;;;;;;5073984;28;20432;-67
2022/01/08 18:47:50;;;;;;;65.38;30.13;;;;;;;;;;5056800;28;20067;-67
2022/01/08 18:50:17;;;;;;;66.57;30.15;;;;;;;;;;5074744;28;20035;-67
2022/01/08 18:52:44;;;;;;;58.30;31.20;;;;;;;;;;5074791;28;20028;-67
2022/01/08 18:55:11;;;;;;;58.78;31.55;;;;;;;;;;5074715;28;20047;-67
2022/01/08 18:57:38;;;;;;;57.15;28.65;;;;;;;;;;5074570;28;20029;-66
2022/01/08 19:00:05;;;;;;;59.05;30.13;;;;;;;;;;5055889;28;20067;-66
2022/01/08 19:02:32;;;;;;;58.90;30.25;;;;;;;;;;5074420;28;20570;-67
2022/01/08 19:04:58;;;;;;;59.72;31.23;;;;;;;;;;5074577;28;20492;-68
2022/01/08 19:07:24;;;;;;;63.85;34.90;;;;;;;;;;5074553;28;20021;-66
2022/01/08 19:09:50;;;;;;;53.20;28.65;;;;;;;;;;5056478;28;20060;-66
2022/01/08 19:12:17;;;;;;;56.97;31.08;;;;;;;;;;5074484;28;20072;-65
2022/01/08 19:14:43;;;;;;;58.97;30.02;;;;;;;;;;5055225;28;20035;-65
2022/01/08 19:17:09;;;;;;;72.93;35.65;;;;;;;;;;5074326;28;20035;-66
2022/01/08 19:19:35;;;;;;;71.15;38.72;;;;;;;;;;5074596;28;20032;-66
2022/01/08 19:22:02;;;;;;;67.90;35.05;;;;;;;;;;5056245;28;20126;-65
2022/01/08 19:24:28;;;;;;;62.80;36.75;;;;;;;;;;5074240;28;20035;-65
2022/01/08 19:26:54;;;;;;;66.60;34.65;;;;;;;;;;5074204;28;20107;-66
2022/01/08 19:29:21;;;;;;;80.57;41.15;;;;;;;;;;5073579;28;20021;-67
2022/01/08 19:31:47;;;;;;;73.15;38.45;;;;;;;;;;5056132;28;20036;-67
2022/01/08 19:34:13;;;;;;;68.57;37.08;;;;;;;;;;5056063;28;20028;-66
2022/01/08 19:36:40;;;;;;;61.20;31.98;;;;;;;;;;5073976;28;20024;-66
2022/01/08 19:39:07;;;;;;;63.65;33.53;;;;;;;;;;5055946;28;20025;-67
2022/01/08 19:41:33;;;;;;;64.78;34.53;;;;;;;;;;5073892;28;20043;-66
2022/01/08 19:44:00;;;;;;;60.83;32.47;;;;;;;;;;5073842;28;20058;-65
2022/01/08 19:46:26;;;;;;;66.65;34.05;;;;;;;;;;5073810;28;20032;-66
2022/01/08 19:48:52;;;;;;;67.97;36.47;;;;;;;;;;5073750;28;20408;-65
2022/01/08 19:51:19;;;;;;;72.00;36.47;;;;;;;;;;5055767;28;20040;-65
2022/01/08 19:53:45;;;;;;;60.53;32.63;;;;;;;;;;5073727;28;20082;-66
2022/01/08 19:56:11;;;;;;;55.53;30.27;;;;;;;;;;5071960;28;20024;-68
2022/01/08 19:58:38;;;;;;;53.50;28.20;;;;;;;;;;5073192;28;20521;-67
2022/01/08 20:01:04;;;;;;;55.13;30.83;;;;;;;;;;5073224;28;20139;-65
2022/01/08 20:03:31;;;;;;;60.53;32.25;;;;;;;;;;5073291;28;20035;-68
2022/01/08 20:05:57;;;;;;;60.42;33.33;;;;;;;;;;5073303;28;20099;-66
2022/01/08 20:08:24;;;;;;;64.85;34.47;;;;;;;;;;5055265;28;20020;-66
2022/01/08 20:10:51;;;;;;;66.57;35.10;;;;;;;;;;5073123;28;20374;-67
2022/01/08 20:13:19;;;;;;;59.20;31.92;;;;;;;;;;5055442;28;20530;-69
2022/01/08 20:15:49;;;;;;;65.05;34.40;;;;;;;;;;5055370;28;20041;-69
2022/01/08 20:18:16;;;;;;;64.07;33.70;;;;;;;;;;5073257;28;20029;-68
2022/01/08 20:20:43;;;;;;;57.90;31.65;;;;;;;;;;5055165;28;20028;-69
2022/01/08 20:23:09;;;;;;;50.03;28.45;;;;;;;;;;5073224;28;20025;-69
2022/01/08 20:25:37;;;;;;;57.42;30.52;;;;;;;;;;5072968;28;20032;-69
2022/01/08 20:28:03;;;;;;;61.50;33.30;;;;;;;;;;5073196;28;20092;-68
2022/01/08 20:30:29;;;;;;;64.63;33.75;;;;;;;;;;5073093;28;20025;-70
2022/01/08 20:32:57;;;;;;;60.50;31.27;;;;;;;;;;5073370;28;20536;-72
2022/01/08 20:35:29;;;;;;;53.92;31.80;;;;;;;;;;5073079;28;20032;-68
2022/01/08 20:37:59;;;;;;;58.15;32.67;;;;;;;;;;5053076;28;20021;-69
2022/01/08 20:40:26;;;;;;;52.45;29.77;;;;;;;;;;5072644;28;20116;-69
2022/01/08 20:42:53;;;;;;;52.08;28.88;;;;;;;;;;5054977;28;20115;-70
2022/01/08 20:45:20;;;;;;;58.25;31.98;;;;;;;;;;5054599;28;20032;-68
2022/01/08 20:47:46;;;;;;;65.40;32.75;;;;;;;;;;5054961;28;20025;-68
2022/01/08 20:50:12;;;;;;;55.80;31.38;;;;;;;;;;5072670;28;20096;-66
2022/01/08 20:52:38;;;;;;;53.35;30.30;;;;;;;;;;5054918;28;20021;-68
2022/01/08 20:55:05;;;;;;;54.38;30.25;;;;;;;;;;5072872;28;20049;-68
2022/01/08 20:57:31;;;;;;;61.97;32.60;;;;;;;;;;5073130;28;20029;-69
2022/01/08 20:59:58;;;;;;;55.90;31.73;;;;;;;;;;5054865;28;20107;-69
2022/01/08 21:02:24;;;;;;;61.83;31.92;;;;;;;;;;5072800;28;20057;-67
2022/01/08 21:04:50;;;;;;;62.38;32.80;;;;;;;;;;5072791;28;20021;-70
2022/01/08 21:07:16;;;;;;;57.33;30.13;;;;;;;;;;5072682;28;20104;-70
2022/01/08 21:09:42;;;;;;;67.18;34.22;;;;;;;;;;5072954;28;20496;-68
2022/01/08 21:12:08;;;;;;;68.85;33.97;;;;;;;;;;5054361;28;20033;-69
2022/01/08 21:14:35;;;;;;;59.47;32.33;;;;;;;;;;5072694;28;20103;-69
2022/01/08 21:17:01;;;;;;;57.67;30.83;;;;;;;;;;5072697;28;20031;-70
2022/01/08 21:19:27;;;;;;;56.42;31.95;;;;;;;;;;5072579;28;20021;-70
2022/01/08 21:21:53;;;;;;;54.10;29.50;;;;;;;;;;5051567;28;20105;-69
2022/01/08 21:24:21;;;;;;;56.85;29.40;;;;;;;;;;5071973;28;20120;-70
2022/01/08 21:26:47;;;;;;;62.72;31.17;;;;;;;;;;5072321;28;20040;-67
2022/01/08 21:29:13;;;;;;;58.10;29.10;;;;;;;;;;5054263;28;20020;-69
2022/01/08 21:31:39;;;;;;;51.40;29.52;;;;;;;;;;5071914;28;20059;-66
2022/01/08 21:34:06;;;;;;;53.90;29.85;;;;;;;;;;5071115;28;20060;-70
2022/01/08 21:36:32;;;;;;;55.78;29.88;;;;;;;;;;5072167;28;20028;-69
2022/01/08 21:39:05;;;;;;;61.80;33.13;;;;;;;;;;5057542;28;20380;-68
2022/01/08 21:41:35;;;;;;;73.70;35.63;;;;;;;;;;5076108;28;20028;-68
2022/01/08 21:44:02;;;;;;;61.90;32.35;;;;;;;;;;5058139;28;20063;-69
2022/01/08 21:46:32;;;;;;;61.92;31.08;;;;;;;;;;5057725;28;20036;-68
2022/01/08 21:48:58;;;;;;;66.13;33.60;;;;;;;;;;5076088;28;20170;-69
2022/01/08 21:51:25;;;;;;;63.70;33.50;;;;;;;;;;5075925;28;20060;-71
2022/01/08 21:53:51;;;;;;;62.35;32.33;;;;;;;;;;5076026;28;20032;-69
2022/01/08 21:56:17;;;;;;;52.80;28.42;;;;;;;;;;5075950;28;20021;-69
2022/01/08 21:58:45;;;;;;;59.13;29.80;;;;;;;;;;5075888;28;20056;-72
2022/01/08 22:01:11;;;;;;;57.20;30.15;;;;;;;;;;5075478;28;20047;-70
2022/01/08 22:03:38;;;;;;;60.25;28.60;;;;;;;;;;5075788;28;20461;-70
2022/01/08 22:06:04;;;;;;;51.70;28.02;;;;;;;;;;5075772;28;20020;-71
2022/01/08 22:08:30;;;;;;;53.95;28.27;;;;;;;;;;5057371;28;20074;-71
2022/01/08 22:10:56;;;;;;;54.85;29.95;;;;;;;;;;5057715;28;20098;-69
2022/01/08 22:13:23;;;;;;;49.47;28.90;;;;;;;;;;5075621;28;20489;-70
2022/01/08 22:15:49;;;;;;;50.40;27.35;;;;;;;;;;5055190;28;20059;-70
2022/01/08 22:18:15;;;;;;;55.63;30.80;;;;;;;;;;5074271;28;20062;-70
2022/01/08 22:20:41;;;;;;;51.10;27.27;;;;;;;;;;5075150;28;20035;-70
2022/01/08 22:23:08;;;;;;;53.05;27.58;;;;;;;;;;5075217;28;20035;-71
2022/01/08 22:25:34;;;;;;;56.22;27.75;;;;;;;;;;5057022;28;20051;-71
2022/01/08 22:28:00;;;;;;;47.55;24.33;;;;;;;;;;5073311;28;20025;-71
2022/01/08 22:30:26;;;;;;;42.92;23.17;;;;;;;;;;5075000;28;20033;-70
2022/01/08 22:32:52;;;;;;;45.33;24.15;;;;;;;;;;5075260;28;20103;-71
2022/01/08 22:35:18;;;;;;;38.22;22.45;;;;;;;;;;5057034;28;20374;-69
2022/01/08 22:37:45;;;;;;;45.25;24.27;;;;;;;;;;5056983;28;20064;-70
2022/01/08 22:40:11;;;;;;;39.85;22.00;;;;;;;;;;5067863;28;20075;-70
2022/01/08 22:42:38;;;;;;;41.90;22.52;;;;;;;;;;5054951;28;20112;-69
2022/01/08 22:45:04;;;;;;;42.03;21.13;;;;;;;;;;5058429;28;20123;-69
2022/01/08 22:47:30;;;;;;;44.45;23.63;;;;;;;;;;5073920;28;20128;-69
2022/01/08 22:49:57;;;;;;;41.13;22.60;;;;;;;;;;5056712;28;20024;-68
2022/01/08 22:52:23;;;;;;;42.72;22.17;;;;;;;;;;5074657;28;20063;-68
2022/01/08 22:54:52;;;;;;;44.67;21.65;;;;;;;;;;5074455;28;20366;-68
2022/01/08 22:57:19;;;;;;;40.50;21.33;;;;;;;;;;5074684;28;20034;-70
2022/01/08 22:59:45;;;;;;;42.47;21.40;;;;;;;;;;5074653;28;20123;-67
2022/01/08 23:02:12;;;;;;;47.67;23.00;;;;;;;;;;5074065;28;20048;-69
2022/01/08 23:04:41;;;;;;;46.58;25.38;;;;;;;;;;5056413;28;20032;-70
2022/01/08 23:07:08;;;;;;;50.33;24.85;;;;;;;;;;5074489;28;20054;-68
2022/01/08 23:09:36;;;;;;;37.33;21.58;;;;;;;;;;5074450;28;20023;-71
2022/01/08 23:12:02;;;;;;;36.92;19.90;;;;;;;;;;5074353;28;20070;-71
2022/01/08 23:14:29;;;;;;;39.20;20.73;;;;;;;;;;5056294;28;20070;-70
2022/01/08 23:16:55;;;;;;;39.67;22.10;;;;;;;;;;5074340;28;20084;-69
2022/01/08 23:19:21;;;;;;;45.42;24.35;;;;;;;;;;5074228;28;20412;-70
2022/01/08 23:21:47;;;;;;;43.25;23.02;;;;;;;;;;5056125;28;20109;-67
2022/01/08 23:24:14;;;;;;;45.95;23.02;;;;;;;;;;5074212;28;20465;-69
2022/01/08 23:26:41;;;;;;;40.10;22.10;;;;;;;;;;5073923;28;20021;-69
2022/01/08 23:29:09;;;;;;;41.25;22.83;;;;;;;;;;5074038;28;20073;-69
2022/01/08 23:31:35;;;;;;;42.28;21.27;;;;;;;;;;5073958;28;20465;-70
2022/01/08 23:34:02;;;;;;;39.38;20.65;;;;;;;;;;5074015;28;20026;-70
2022/01/08 23:36:28;;;;;;;35.03;19.58;;;;;;;;;;5073417;28;20116;-69
2022/01/08 23:38:54;;;;;;;38.70;21.55;;;;;;;;;;5055837;28;20029;-69
2022/01/08 23:41:20;;;;;;;46.33;24.13;;;;;;;;;;5073654;28;20086;-70
2022/01/08 23:43:46;;;;;;;50.03;25.20;;;;;;;;;;5073475;28;20115;-68
2022/01/08 23:46:12;;;;;;;39.83;23.00;;;;;;;;;;5073693;28;20056;-71
2022/01/08 23:48:39;;;;;;;36.20;20.15;;;;;;;;;;5073543;28;20103;-71
2022/01/08 23:51:13;;;;;;;42.88;23.52;;;;;;;;;;5073327;28;20153;-70
2022/01/08 23:53:39;;;;;;;47.63;22.50;;;;;;;;;;5073611;28;20385;-70
2022/01/08 23:56:06;;;;;;;42.33;22.42;;;;;;;;;;5055458;28;20190;-71
2022/01/08 23:58:33;;;;;;;37.75;21.00;;;;;;;;;;5073274;28;20021;-70
